Aérodrome :
LOGIN :

S'inscrire | Disclaimer

   EN    FR    IT 

 










Légende :    VFR   VFR Marginal   IFR   IFR Intensif   IFR Très Intensif
Visi : 
Plafond : 
>= 8 km
>= 3000ft
5 à 8 km
1000 à 3000 ft
1500m à 5 km
500 à 1000 ft
800 à 1500m
200 à 500 ft
< 800m
< 200 ft
Symboles :   Orages  Brouillard  Fortes neiges  Fortes précipitations  Vent > 20 kt
SIGMETs :   Divers  Orages  Givrage  Turbulence  Onde Orograph.  Cendres Volcan.







- Altitude de l'aérodrome : 247 ft
- Code IATA : BLL


EKBI - Billund

DERNIER METAR :
  • 200850Z AUTO 13009KT 100V160 9999 OVC067/// 20/14 Q1011

METARs EXPIRÉS :
  • 200820Z AUTO 13010KT 100V160 9999 BKN067/// 20/13 Q1011
  • 200750Z AUTO 13011KT 9999 BKN058/// BKN090/// BKN160/// 19/14 Q1011
  • 200720Z AUTO 13009KT 100V160 9999 BKN055/// BKN066/// BKN100/// 18/14 Q1012
  • 200650Z AUTO 12007KT 9999 SCT044/// BKN098/// BKN120/// 16/13 Q1012
  • 200620Z AUTO 12007KT 9999 FEW055/// SCT071/// OVC100/// 16/13 Q1012

TAF TAF EKBI
Valide du 20 à 06h jusqu'au 21 à 06h UTC


200514Z 2006/2106 13010KT 9999 BKN040
TEMPO 2006/2010 RA
TEMPO 2012/2015 14012G25KT
TEMPO 2015/2018 4000 SHRA TSRA BKN030CB
BECMG 2016/2019 20008KT
TEMPO 2018/2106 2000 BR BKN005
Pas de NOTAMs connus pour ce terrain.



MET'MAP, la Météo Aéronautique d'un coup d'oeil ! - Copyright ORBIFLY Décembre 2007 - Disclaimer

ORBIFLY MET'MAP TEAM :

Programmation & Développement : Alexandra Zaïnal
Conception & Développement : Baudouin d'Aumeries
Co-Programmation & Développement : Marc-Olivier Méhu
Soutien technique & logistique : Manuel Goepfert

Contact : metmap@orbifly.com




SOURCES & CREDITS :

   NOAA